sensor_id;sensor_type;location;lat;lon;timestamp;pressure;altitude;pressure_sealevel;temperature;humidity
6134;BME280;3098;42.678;23.364;2022-10-31T00:01:27;95383.97;;;14.09;68.51
6134;BME280;3098;42.678;23.364;2022-10-31T00:03:56;95348.72;;;13.86;69.15
6134;BME280;3098;42.678;23.364;2022-10-31T00:06:24;95375.38;;;14.03;69.35
6134;BME280;3098;42.678;23.364;2022-10-31T00:08:52;95374.72;;;14.06;69.33
6134;BME280;3098;42.678;23.364;2022-10-31T00:11:21;95358.75;;;13.98;69.48
6134;BME280;3098;42.678;23.364;2022-10-31T00:13:48;95364.41;;;14.05;69.61
6134;BME280;3098;42.678;23.364;2022-10-31T00:16:17;95361.75;;;13.96;70.28
6134;BME280;3098;42.678;23.364;2022-10-31T00:18:49;95329.94;;;13.74;70.66
6134;BME280;3098;42.678;23.364;2022-10-31T00:21:19;95381.81;;;13.94;70.98
6134;BME280;3098;42.678;23.364;2022-10-31T00:23:47;95382.75;;;13.98;71.19
6134;BME280;3098;42.678;23.364;2022-10-31T00:26:18;95359.72;;;13.85;71.41
6134;BME280;3098;42.678;23.364;2022-10-31T00:28:48;95365.19;;;13.97;71.20
6134;BME280;3098;42.678;23.364;2022-10-31T00:31:17;95376.19;;;13.95;71.49
6134;BME280;3098;42.678;23.364;2022-10-31T00:33:46;95351.72;;;13.85;71.42
6134;BME280;3098;42.678;23.364;2022-10-31T00:36:19;95344.38;;;13.73;72.13
6134;BME280;3098;42.678;23.364;2022-10-31T00:38:49;95364.09;;;13.89;72.05
6134;BME280;3098;42.678;23.364;2022-10-31T00:41:17;95192.13;;;12.77;72.32
6134;BME280;3098;42.678;23.364;2022-10-31T00:43:45;95360.50;;;13.76;72.97
6134;BME280;3098;42.678;23.364;2022-10-31T00:46:12;95354.25;;;13.81;72.84
6134;BME280;3098;42.678;23.364;2022-10-31T00:48:40;95359.56;;;13.81;72.98
6134;BME280;3098;42.678;23.364;2022-10-31T00:51:07;95363.47;;;13.92;73.03
6134;BME280;3098;42.678;23.364;2022-10-31T00:53:36;95368.34;;;13.81;73.82
6134;BME280;3098;42.678;23.364;2022-10-31T00:56:04;95367.25;;;13.65;74.27
6134;BME280;3098;42.678;23.364;2022-10-31T00:58:31;95371.16;;;13.76;73.78
6134;BME280;3098;42.678;23.364;2022-10-31T01:00:58;95356.94;;;13.64;74.02
6134;BME280;3098;42.678;23.364;2022-10-31T01:03:28;95324.00;;;13.43;74.25
6134;BME280;3098;42.678;23.364;2022-10-31T01:05:58;95362.88;;;13.61;74.89
6134;BME280;3098;42.678;23.364;2022-10-31T01:08:27;95360.41;;;13.47;75.43
6134;BME280;3098;42.678;23.364;2022-10-31T01:11:04;95378.88;;;13.52;75.41
6134;BME280;3098;42.678;23.364;2022-10-31T01:13:34;95381.06;;;13.24;77.08
6134;BME280;3098;42.678;23.364;2022-10-31T01:16:04;95373.00;;;12.90;78.60
6134;BME280;3098;42.678;23.364;2022-10-31T01:18:34;95381.31;;;12.49;81.63
6134;BME280;3098;42.678;23.364;2022-10-31T01:21:04;95360.34;;;12.08;83.10
6134;BME280;3098;42.678;23.364;2022-10-31T01:23:36;95387.69;;;12.09;85.09
6134;BME280;3098;42.678;23.364;2022-10-31T01:26:12;95330.00;;;11.57;85.91
6134;BME280;3098;42.678;23.364;2022-10-31T01:28:48;95363.13;;;11.59;86.97
6134;BME280;3098;42.678;23.364;2022-10-31T01:31:21;95400.22;;;11.86;87.59
6134;BME280;3098;42.678;23.364;2022-10-31T01:33:50;95398.97;;;11.84;87.85
6134;BME280;3098;42.678;23.364;2022-10-31T01:36:20;95388.50;;;11.65;88.27
6134;BME280;3098;42.678;23.364;2022-10-31T01:38:50;95403.06;;;11.68;88.78
6134;BME280;3098;42.678;23.364;2022-10-31T01:41:21;95344.97;;;11.30;89.52
6134;BME280;3098;42.678;23.364;2022-10-31T01:43:53;95383.47;;;11.64;89.15
6134;BME280;3098;42.678;23.364;2022-10-31T01:46:24;95393.94;;;11.60;89.44
6134;BME280;3098;42.678;23.364;2022-10-31T01:48:54;95366.53;;;11.51;89.22
6134;BME280;3098;42.678;23.364;2022-10-31T01:51:27;95396.63;;;11.82;88.57
6134;BME280;3098;42.678;23.364;2022-10-31T01:53:59;95397.72;;;11.81;88.61
6134;BME280;3098;42.678;23.364;2022-10-31T01:56:32;95402.53;;;11.79;88.44
6134;BME280;3098;42.678;23.364;2022-10-31T01:59:04;95387.81;;;11.73;88.98
6134;BME280;3098;42.678;23.364;2022-10-31T02:01:34;95395.28;;;11.93;88.79
6134;BME280;3098;42.678;23.364;2022-10-31T02:04:02;95394.22;;;11.94;89.09
6134;BME280;3098;42.678;23.364;2022-10-31T02:06:36;95398.97;;;12.06;88.72
6134;BME280;3098;42.678;23.364;2022-10-31T02:09:05;95375.66;;;12.03;87.94
6134;BME280;3098;42.678;23.364;2022-10-31T02:11:37;95376.00;;;12.10;86.66
6134;BME280;3098;42.678;23.364;2022-10-31T02:14:06;95351.72;;;11.81;87.21
6134;BME280;3098;42.678;23.364;2022-10-31T02:16:39;95391.75;;;12.06;87.61
6134;BME280;3098;42.678;23.364;2022-10-31T02:19:13;95286.84;;;11.51;87.18
6134;BME280;3098;42.678;23.364;2022-10-31T02:21:49;95400.53;;;12.07;87.34
6134;BME280;3098;42.678;23.364;2022-10-31T02:24:44;95370.91;;;11.91;87.34
6134;BME280;3098;42.678;23.364;2022-10-31T02:30:18;95405.50;;;12.00;88.00
6134;BME280;3098;42.678;23.364;2022-10-31T02:33:03;95409.44;;;12.02;88.53
6134;BME280;3098;42.678;23.364;2022-10-31T02:35:42;95410.16;;;11.94;88.31
6134;BME280;3098;42.678;23.364;2022-10-31T02:38:30;95354.44;;;11.45;89.06
6134;BME280;3098;42.678;23.364;2022-10-31T02:41:13;95406.13;;;11.61;89.96
6134;BME280;3098;42.678;23.364;2022-10-31T02:43:52;95426.19;;;11.67;90.08
6134;BME280;3098;42.678;23.364;2022-10-31T02:46:25;95409.16;;;11.68;90.43
6134;BME280;3098;42.678;23.364;2022-10-31T02:49:03;95424.25;;;11.59;90.60
6134;BME280;3098;42.678;23.364;2022-10-31T02:51:33;95371.72;;;11.34;91.08
6134;BME280;3098;42.678;23.364;2022-10-31T02:54:00;95404.88;;;11.81;90.09
6134;BME280;3098;42.678;23.364;2022-10-31T02:56:27;95416.78;;;12.05;89.75
6134;BME280;3098;42.678;23.364;2022-10-31T02:58:56;95406.16;;;12.05;89.00
6134;BME280;3098;42.678;23.364;2022-10-31T03:01:45;95413.91;;;11.93;89.10
6134;BME280;3098;42.678;23.364;2022-10-31T03:04:51;95427.47;;;12.14;89.28
6134;BME280;3098;42.678;23.364;2022-10-31T03:07:28;95425.63;;;12.15;88.79
6134;BME280;3098;42.678;23.364;2022-10-31T03:10:04;95413.72;;;12.21;88.94
6134;BME280;3098;42.678;23.364;2022-10-31T03:12:39;95426.50;;;12.41;88.07
6134;BME280;3098;42.678;23.364;2022-10-31T03:15:19;95430.28;;;12.40;87.64
6134;BME280;3098;42.678;23.364;2022-10-31T03:17:54;95424.19;;;12.39;87.51
6134;BME280;3098;42.678;23.364;2022-10-31T03:20:29;95383.97;;;12.10;87.46
6134;BME280;3098;42.678;23.364;2022-10-31T03:22:59;95424.59;;;12.33;87.88
6134;BME280;3098;42.678;23.364;2022-10-31T03:25:29;95408.09;;;12.14;88.05
6134;BME280;3098;42.678;23.364;2022-10-31T03:27:58;95427.63;;;12.18;89.03
6134;BME280;3098;42.678;23.364;2022-10-31T03:30:28;95432.84;;;12.00;90.01
6134;BME280;3098;42.678;23.364;2022-10-31T03:32:57;95424.66;;;11.88;90.48
6134;BME280;3098;42.678;23.364;2022-10-31T03:35:30;95411.03;;;11.68;91.11
6134;BME280;3098;42.678;23.364;2022-10-31T03:38:00;95443.59;;;11.73;91.70
6134;BME280;3098;42.678;23.364;2022-10-31T03:40:30;95439.56;;;11.76;91.58
6134;BME280;3098;42.678;23.364;2022-10-31T03:43:01;95439.44;;;11.81;91.92
6134;BME280;3098;42.678;23.364;2022-10-31T03:45:37;95446.16;;;12.00;91.43
6134;BME280;3098;42.678;23.364;2022-10-31T03:48:08;95446.69;;;12.11;90.62
6134;BME280;3098;42.678;23.364;2022-10-31T03:50:40;95454.38;;;12.13;90.42
6134;BME280;3098;42.678;23.364;2022-10-31T03:53:16;95438.53;;;12.07;90.41
6134;BME280;3098;42.678;23.364;2022-10-31T03:55:49;95445.38;;;12.00;90.63
6134;BME280;3098;42.678;23.364;2022-10-31T03:58:21;95447.06;;;11.96;90.98
6134;BME280;3098;42.678;23.364;2022-10-31T04:00:51;95457.75;;;11.82;91.17
6134;BME280;3098;42.678;23.364;2022-10-31T04:03:23;95440.47;;;11.71;91.78
6134;BME280;3098;42.678;23.364;2022-10-31T04:05:55;95460.63;;;11.72;91.90
6134;BME280;3098;42.678;23.364;2022-10-31T04:08:26;95467.63;;;11.68;93.10
6134;BME280;3098;42.678;23.364;2022-10-31T04:10:56;95458.75;;;11.73;93.23
6134;BME280;3098;42.678;23.364;2022-10-31T04:13:26;95444.69;;;11.72;93.21
6134;BME280;3098;42.678;23.364;2022-10-31T04:15:56;95462.88;;;11.79;93.10
6134;BME280;3098;42.678;23.364;2022-10-31T04:18:24;95476.31;;;11.96;92.85
6134;BME280;3098;42.678;23.364;2022-10-31T04:21:01;95466.34;;;12.01;92.37
6134;BME280;3098;42.678;23.364;2022-10-31T04:23:28;95373.03;;;11.45;92.11
6134;BME280;3098;42.678;23.364;2022-10-31T04:25:56;95411.09;;;11.54;92.61
6134;BME280;3098;42.678;23.364;2022-10-31T04:28:23;95458.28;;;11.71;93.64
6134;BME280;3098;42.678;23.364;2022-10-31T04:30:50;95408.72;;;11.52;93.24
6134;BME280;3098;42.678;23.364;2022-10-31T04:33:18;95466.00;;;11.94;93.63
6134;BME280;3098;42.678;23.364;2022-10-31T04:35:45;95450.13;;;11.89;92.97
6134;BME280;3098;42.678;23.364;2022-10-31T04:38:15;95462.81;;;11.92;93.36
6134;BME280;3098;42.678;23.364;2022-10-31T04:40:44;95471.91;;;11.91;93.59
6134;BME280;3098;42.678;23.364;2022-10-31T04:43:11;95444.59;;;11.77;93.93
6134;BME280;3098;42.678;23.364;2022-10-31T04:45:39;95486.66;;;11.97;93.76
6134;BME280;3098;42.678;23.364;2022-10-31T04:48:07;95484.47;;;11.99;93.48
6134;BME280;3098;42.678;23.364;2022-10-31T04:50:34;95453.28;;;11.55;94.38
6134;BME280;3098;42.678;23.364;2022-10-31T04:53:01;95456.50;;;11.66;95.19
6134;BME280;3098;42.678;23.364;2022-10-31T04:55:30;95491.63;;;11.77;95.15
6134;BME280;3098;42.678;23.364;2022-10-31T04:57:57;95480.63;;;11.70;94.99
6134;BME280;3098;42.678;23.364;2022-10-31T05:00:24;95491.06;;;11.66;95.61
6134;BME280;3098;42.678;23.364;2022-10-31T05:02:55;95490.44;;;11.83;95.14
6134;BME280;3098;42.678;23.364;2022-10-31T05:05:26;95412.25;;;11.26;94.96
6134;BME280;3098;42.678;23.364;2022-10-31T05:07:53;95468.59;;;11.72;95.68
6134;BME280;3098;42.678;23.364;2022-10-31T05:10:23;95461.28;;;11.91;94.77
6134;BME280;3098;42.678;23.364;2022-10-31T05:12:53;95476.16;;;12.45;93.29
6134;BME280;3098;42.678;23.364;2022-10-31T05:15:22;95443.25;;;12.41;91.82
6134;BME280;3098;42.678;23.364;2022-10-31T05:17:51;95480.41;;;13.16;88.85
6134;BME280;3098;42.678;23.364;2022-10-31T05:20:19;95500.25;;;13.84;86.68
6134;BME280;3098;42.678;23.364;2022-10-31T05:22:50;95503.22;;;13.91;83.48
6134;BME280;3098;42.678;23.364;2022-10-31T05:25:19;95499.13;;;13.85;83.32
6134;BME280;3098;42.678;23.364;2022-10-31T05:27:48;95504.78;;;13.75;83.63
6134;BME280;3098;42.678;23.364;2022-10-31T05:30:25;95511.19;;;13.65;84.28
6134;BME280;3098;42.678;23.364;2022-10-31T05:32:53;95488.78;;;13.49;83.90
6134;BME280;3098;42.678;23.364;2022-10-31T05:35:22;95484.19;;;13.33;84.64
6134;BME280;3098;42.678;23.364;2022-10-31T05:37:50;95509.13;;;13.28;85.11
6134;BME280;3098;42.678;23.364;2022-10-31T05:40:18;95520.97;;;13.13;86.34
6134;BME280;3098;42.678;23.364;2022-10-31T05:42:45;95519.00;;;12.97;87.10
6134;BME280;3098;42.678;23.364;2022-10-31T05:45:14;95514.72;;;12.87;88.81
6134;BME280;3098;42.678;23.364;2022-10-31T05:47:50;95520.72;;;13.01;88.88
6134;BME280;3098;42.678;23.364;2022-10-31T05:50:17;95524.84;;;13.64;86.06
6134;BME280;3098;42.678;23.364;2022-10-31T05:52:44;95499.00;;;14.16;82.38
6134;BME280;3098;42.678;23.364;2022-10-31T05:55:12;95520.06;;;15.65;77.25
6134;BME280;3098;42.678;23.364;2022-10-31T05:57:39;95529.81;;;16.11;72.05
6134;BME280;3098;42.678;23.364;2022-10-31T06:00:07;95535.91;;;17.67;65.83
6134;BME280;3098;42.678;23.364;2022-10-31T06:02:35;95536.09;;;18.38;60.37
6134;BME280;3098;42.678;23.364;2022-10-31T06:05:05;95525.06;;;19.30;57.06
6134;BME280;3098;42.678;23.364;2022-10-31T06:07:32;95497.47;;;19.64;53.67
6134;BME280;3098;42.678;23.364;2022-10-31T06:10:02;95544.81;;;20.35;52.72
6134;BME280;3098;42.678;23.364;2022-10-31T06:12:30;95539.16;;;20.59;50.80
6134;BME280;3098;42.678;23.364;2022-10-31T06:14:57;95550.84;;;20.47;50.20
6134;BME280;3098;42.678;23.364;2022-10-31T06:17:24;95547.16;;;19.67;51.74
6134;BME280;3098;42.678;23.364;2022-10-31T06:19:51;95556.22;;;20.47;51.62
6134;BME280;3098;42.678;23.364;2022-10-31T06:22:20;95527.69;;;21.27;46.00
6134;BME280;3098;42.678;23.364;2022-10-31T06:24:48;95525.47;;;20.14;48.79
6134;BME280;3098;42.678;23.364;2022-10-31T06:27:15;95565.66;;;20.03;50.43
6134;BME280;3098;42.678;23.364;2022-10-31T06:29:42;95559.91;;;20.97;47.97
6134;BME280;3098;42.678;23.364;2022-10-31T06:32:12;95570.69;;;20.97;47.00
6134;BME280;3098;42.678;23.364;2022-10-31T06:34:49;95577.66;;;21.62;45.46
6134;BME280;3098;42.678;23.364;2022-10-31T06:37:16;95582.63;;;21.38;45.56
6134;BME280;3098;42.678;23.364;2022-10-31T06:39:45;95563.13;;;21.25;45.38
6134;BME280;3098;42.678;23.364;2022-10-31T06:42:11;95510.25;;;21.20;44.88
6134;BME280;3098;42.678;23.364;2022-10-31T06:44:39;95578.28;;;21.78;44.36
6134;BME280;3098;42.678;23.364;2022-10-31T06:47:06;95561.44;;;21.62;44.79
6134;BME280;3098;42.678;23.364;2022-10-31T06:49:34;95576.22;;;22.47;43.20
6134;BME280;3098;42.678;23.364;2022-10-31T06:52:02;95558.31;;;23.02;42.28
6134;BME280;3098;42.678;23.364;2022-10-31T06:54:30;95560.63;;;22.67;42.63
6134;BME280;3098;42.678;23.364;2022-10-31T06:56:59;95583.00;;;23.34;41.20
6134;BME280;3098;42.678;23.364;2022-10-31T06:59:26;95572.25;;;22.41;43.24
6134;BME280;3098;42.678;23.364;2022-10-31T07:01:53;95579.44;;;21.55;45.01
6134;BME280;3098;42.678;23.364;2022-10-31T07:04:21;95578.75;;;22.37;43.89
6134;BME280;3098;42.678;23.364;2022-10-31T07:06:50;95570.50;;;23.22;41.98
6134;BME280;3098;42.678;23.364;2022-10-31T07:09:18;95572.50;;;24.17;39.40
6134;BME280;3098;42.678;23.364;2022-10-31T07:11:47;95580.88;;;24.01;40.41
6134;BME280;3098;42.678;23.364;2022-10-31T07:14:21;95580.25;;;23.30;40.94
6134;BME280;3098;42.678;23.364;2022-10-31T07:16:49;95570.16;;;23.68;40.49
6134;BME280;3098;42.678;23.364;2022-10-31T07:19:17;95576.22;;;24.01;39.92
6134;BME280;3098;42.678;23.364;2022-10-31T07:21:44;95571.44;;;23.37;41.47
6134;BME280;3098;42.678;23.364;2022-10-31T07:24:11;95553.56;;;24.27;39.67
6134;BME280;3098;42.678;23.364;2022-10-31T07:26:38;95533.25;;;24.76;38.44
6134;BME280;3098;42.678;23.364;2022-10-31T07:29:07;95559.28;;;24.84;38.08
6134;BME280;3098;42.678;23.364;2022-10-31T07:31:36;95563.84;;;23.50;41.16
6134;BME280;3098;42.678;23.364;2022-10-31T07:34:04;95460.91;;;23.02;42.34
6134;BME280;3098;42.678;23.364;2022-10-31T07:36:31;95533.84;;;23.76;40.52
6134;BME280;3098;42.678;23.364;2022-10-31T07:38:59;95567.44;;;23.64;41.86
6134;BME280;3098;42.678;23.364;2022-10-31T07:41:27;95534.25;;;22.90;42.82
6134;BME280;3098;42.678;23.364;2022-10-31T07:43:54;95559.56;;;23.49;41.93
6134;BME280;3098;42.678;23.364;2022-10-31T07:46:21;95560.75;;;23.14;42.00
6134;BME280;3098;42.678;23.364;2022-10-31T07:48:50;95534.66;;;23.32;42.13
6134;BME280;3098;42.678;23.364;2022-10-31T07:51:17;95478.88;;;22.47;42.63
6134;BME280;3098;42.678;23.364;2022-10-31T07:53:45;95542.13;;;23.42;42.21
6134;BME280;3098;42.678;23.364;2022-10-31T07:56:12;95553.19;;;24.32;40.91
6134;BME280;3098;42.678;23.364;2022-10-31T07:58:39;95558.97;;;25.21;38.90
6134;BME280;3098;42.678;23.364;2022-10-31T08:01:06;95540.25;;;24.77;38.89
6134;BME280;3098;42.678;23.364;2022-10-31T08:03:33;95567.16;;;25.31;38.25
6134;BME280;3098;42.678;23.364;2022-10-31T08:06:03;95560.63;;;25.57;36.87
6134;BME280;3098;42.678;23.364;2022-10-31T08:08:30;95558.41;;;24.62;39.17
6134;BME280;3098;42.678;23.364;2022-10-31T08:10:57;95555.16;;;25.43;37.50
6134;BME280;3098;42.678;23.364;2022-10-31T08:13:25;95562.09;;;25.30;37.07
6134;BME280;3098;42.678;23.364;2022-10-31T08:15:52;95555.94;;;25.40;37.18
6134;BME280;3098;42.678;23.364;2022-10-31T08:18:21;95561.72;;;25.38;37.02
6134;BME280;3098;42.678;23.364;2022-10-31T08:20:49;95566.44;;;25.69;36.31
6134;BME280;3098;42.678;23.364;2022-10-31T08:23:19;95501.47;;;24.73;37.88
6134;BME280;3098;42.678;23.364;2022-10-31T08:25:46;95561.16;;;24.76;38.80
6134;BME280;3098;42.678;23.364;2022-10-31T08:28:13;95538.94;;;23.84;39.10
6134;BME280;3098;42.678;23.364;2022-10-31T08:30:41;95557.22;;;23.07;41.65
6134;BME280;3098;42.678;23.364;2022-10-31T08:33:10;95512.44;;;23.57;40.69
6134;BME280;3098;42.678;23.364;2022-10-31T08:35:37;95561.31;;;25.11;38.25
6134;BME280;3098;42.678;23.364;2022-10-31T08:38:05;95561.38;;;25.57;37.14
6134;BME280;3098;42.678;23.364;2022-10-31T08:40:34;95552.81;;;25.20;37.43
6134;BME280;3098;42.678;23.364;2022-10-31T08:43:03;95453.03;;;24.71;37.79
6134;BME280;3098;42.678;23.364;2022-10-31T08:45:32;95537.31;;;25.63;36.90
6134;BME280;3098;42.678;23.364;2022-10-31T08:48:02;95560.81;;;24.81;38.31
6134;BME280;3098;42.678;23.364;2022-10-31T08:50:35;95543.09;;;25.26;38.00
6134;BME280;3098;42.678;23.364;2022-10-31T08:53:03;95540.41;;;25.68;37.10
6134;BME280;3098;42.678;23.364;2022-10-31T08:55:34;95555.16;;;26.06;36.10
6134;BME280;3098;42.678;23.364;2022-10-31T08:58:02;95527.63;;;25.69;36.88
6134;BME280;3098;42.678;23.364;2022-10-31T09:00:31;95534.63;;;25.70;36.84
6134;BME280;3098;42.678;23.364;2022-10-31T09:02:59;95555.13;;;26.38;35.90
6134;BME280;3098;42.678;23.364;2022-10-31T09:05:27;95554.25;;;26.62;35.73
6134;BME280;3098;42.678;23.364;2022-10-31T09:07:55;95549.13;;;26.86;35.53
6134;BME280;3098;42.678;23.364;2022-10-31T09:10:26;95547.59;;;27.50;34.41
6134;BME280;3098;42.678;23.364;2022-10-31T09:12:59;95542.97;;;27.40;34.51
6134;BME280;3098;42.678;23.364;2022-10-31T09:15:27;95443.94;;;26.47;34.67
6134;BME280;3098;42.678;23.364;2022-10-31T09:17:54;95544.59;;;26.47;35.52
6134;BME280;3098;42.678;23.364;2022-10-31T09:20:22;95543.13;;;26.07;36.11
6134;BME280;3098;42.678;23.364;2022-10-31T09:22:55;95541.56;;;25.36;37.27
6134;BME280;3098;42.678;23.364;2022-10-31T09:25:23;95528.41;;;25.48;37.48
6134;BME280;3098;42.678;23.364;2022-10-31T09:27:54;95542.34;;;25.86;37.19
6134;BME280;3098;42.678;23.364;2022-10-31T09:30:23;95543.13;;;26.21;36.26
6134;BME280;3098;42.678;23.364;2022-10-31T09:32:55;95550.91;;;25.56;37.73
6134;BME280;3098;42.678;23.364;2022-10-31T09:35:24;95520.25;;;25.66;37.21
6134;BME280;3098;42.678;23.364;2022-10-31T09:37:54;95540.84;;;25.56;37.21
6134;BME280;3098;42.678;23.364;2022-10-31T09:40:24;95547.41;;;25.69;38.10
6134;BME280;3098;42.678;23.364;2022-10-31T09:42:58;95545.69;;;26.67;36.16
6134;BME280;3098;42.678;23.364;2022-10-31T09:45:38;95521.16;;;26.74;35.69
6134;BME280;3098;42.678;23.364;2022-10-31T09:48:27;95542.75;;;26.05;36.69
6134;BME280;3098;42.678;23.364;2022-10-31T09:50:59;95537.28;;;26.30;37.22
6134;BME280;3098;42.678;23.364;2022-10-31T09:53:32;95497.69;;;26.22;36.41
6134;BME280;3098;42.678;23.364;2022-10-31T09:56:02;95527.63;;;27.05;34.63
6134;BME280;3098;42.678;23.364;2022-10-31T09:58:35;95519.94;;;26.90;35.55
6134;BME280;3098;42.678;23.364;2022-10-31T10:04:01;95496.53;;;25.91;36.27
6134;BME280;3098;42.678;23.364;2022-10-31T10:06:30;95525.56;;;26.51;36.70
6134;BME280;3098;42.678;23.364;2022-10-31T10:09:01;95519.34;;;26.43;35.66
6134;BME280;3098;42.678;23.364;2022-10-31T10:11:42;95469.63;;;27.12;35.19
6134;BME280;3098;42.678;23.364;2022-10-31T10:14:25;95510.38;;;27.29;34.86
6134;BME280;3098;42.678;23.364;2022-10-31T10:17:09;95505.44;;;25.17;37.62
6134;BME280;3098;42.678;23.364;2022-10-31T10:20:00;95484.06;;;26.22;36.86
6134;BME280;3098;42.678;23.364;2022-10-31T10:22:40;95494.38;;;26.66;36.01
6134;BME280;3098;42.678;23.364;2022-10-31T10:25:16;95495.94;;;26.67;35.46
6134;BME280;3098;42.678;23.364;2022-10-31T10:27:55;95412.22;;;26.09;35.39
6134;BME280;3098;42.678;23.364;2022-10-31T10:30:32;95492.97;;;26.33;35.60
6134;BME280;3098;42.678;23.364;2022-10-31T10:33:05;95448.25;;;27.10;34.33
6134;BME280;3098;42.678;23.364;2022-10-31T10:35:39;95424.84;;;27.20;32.46
6134;BME280;3098;42.678;23.364;2022-10-31T10:38:14;95419.81;;;27.15;32.82
6134;BME280;3098;42.678;23.364;2022-10-31T10:40:43;95452.13;;;27.13;33.64
6134;BME280;3098;42.678;23.364;2022-10-31T10:43:20;95416.38;;;27.07;33.31
6134;BME280;3098;42.678;23.364;2022-10-31T10:45:57;95475.94;;;26.18;34.84
6134;BME280;3098;42.678;23.364;2022-10-31T10:48:52;95468.66;;;26.74;34.28
6134;BME280;3098;42.678;23.364;2022-10-31T10:51:27;95461.38;;;27.26;33.98
6134;BME280;3098;42.678;23.364;2022-10-31T10:54:06;95446.41;;;26.17;34.93
6134;BME280;3098;42.678;23.364;2022-10-31T10:56:47;95466.47;;;27.20;34.00
6134;BME280;3098;42.678;23.364;2022-10-31T10:59:20;95450.69;;;26.98;34.08
6134;BME280;3098;42.678;23.364;2022-10-31T11:01:50;95445.34;;;25.05;36.76
6134;BME280;3098;42.678;23.364;2022-10-31T11:04:30;95461.44;;;27.19;34.00
6134;BME280;3098;42.678;23.364;2022-10-31T11:07:04;95455.88;;;27.77;32.52
6134;BME280;3098;42.678;23.364;2022-10-31T11:09:33;95457.94;;;27.66;33.01
6134;BME280;3098;42.678;23.364;2022-10-31T11:12:07;95407.69;;;27.23;33.53
6134;BME280;3098;42.678;23.364;2022-10-31T11:14:37;95454.78;;;26.54;33.83
6134;BME280;3098;42.678;23.364;2022-10-31T11:17:16;95448.53;;;26.64;33.57
6134;BME280;3098;42.678;23.364;2022-10-31T11:19:46;95447.63;;;27.44;32.44
6134;BME280;3098;42.678;23.364;2022-10-31T11:22:16;95440.69;;;27.32;32.24
6134;BME280;3098;42.678;23.364;2022-10-31T11:24:44;95441.66;;;27.96;31.56
6134;BME280;3098;42.678;23.364;2022-10-31T11:27:14;95438.34;;;27.78;31.65
6134;BME280;3098;42.678;23.364;2022-10-31T11:29:42;95437.72;;;26.47;33.83
6134;BME280;3098;42.678;23.364;2022-10-31T11:32:19;95429.66;;;27.02;33.00
6134;BME280;3098;42.678;23.364;2022-10-31T11:34:50;95429.94;;;26.45;33.69
6134;BME280;3098;42.678;23.364;2022-10-31T11:37:21;95423.97;;;26.75;33.75
6134;BME280;3098;42.678;23.364;2022-10-31T11:39:51;95421.91;;;26.17;33.63
6134;BME280;3098;42.678;23.364;2022-10-31T11:42:22;95420.34;;;26.26;34.07
6134;BME280;3098;42.678;23.364;2022-10-31T11:44:51;95422.03;;;26.79;33.29
6134;BME280;3098;42.678;23.364;2022-10-31T11:47:25;95426.16;;;26.28;33.82
6134;BME280;3098;42.678;23.364;2022-10-31T11:49:55;95423.41;;;26.36;34.02
6134;BME280;3098;42.678;23.364;2022-10-31T11:52:25;95419.75;;;25.55;35.27
6134;BME280;3098;42.678;23.364;2022-10-31T11:54:54;95417.81;;;25.49;35.52
6134;BME280;3098;42.678;23.364;2022-10-31T11:57:25;95407.69;;;25.63;35.16
6134;BME280;3098;42.678;23.364;2022-10-31T11:59:54;95330.56;;;24.66;36.12
6134;BME280;3098;42.678;23.364;2022-10-31T12:02:22;95397.94;;;25.91;34.94
6134;BME280;3098;42.678;23.364;2022-10-31T12:04:58;95398.88;;;26.46;34.36
6134;BME280;3098;42.678;23.364;2022-10-31T12:07:27;95397.44;;;26.20;34.63
6134;BME280;3098;42.678;23.364;2022-10-31T12:09:54;95351.09;;;26.42;33.67
6134;BME280;3098;42.678;23.364;2022-10-31T12:12:52;95398.03;;;27.59;31.90
6134;BME280;3098;42.678;23.364;2022-10-31T12:15:31;95346.66;;;27.95;31.69
6134;BME280;3098;42.678;23.364;2022-10-31T12:18:22;95398.03;;;27.59;31.93
6134;BME280;3098;42.678;23.364;2022-10-31T12:21:12;95402.00;;;26.41;33.86
6134;BME280;3098;42.678;23.364;2022-10-31T12:23:52;95393.19;;;26.19;34.23
6134;BME280;3098;42.678;23.364;2022-10-31T12:26:27;95396.69;;;26.16;33.98
6134;BME280;3098;42.678;23.364;2022-10-31T12:29:15;95377.03;;;25.70;34.59
6134;BME280;3098;42.678;23.364;2022-10-31T12:32:00;95391.03;;;25.37;35.29
6134;BME280;3098;42.678;23.364;2022-10-31T12:34:51;95392.19;;;25.64;35.07
6134;BME280;3098;42.678;23.364;2022-10-31T12:37:31;95384.47;;;24.85;36.16
6134;BME280;3098;42.678;23.364;2022-10-31T12:40:12;95398.00;;;24.71;36.74
6134;BME280;3098;42.678;23.364;2022-10-31T12:42:51;95390.59;;;24.53;37.39
6134;BME280;3098;42.678;23.364;2022-10-31T12:45:41;95372.75;;;24.52;36.99
6134;BME280;3098;42.678;23.364;2022-10-31T12:48:35;95377.00;;;24.46;37.67
6134;BME280;3098;42.678;23.364;2022-10-31T12:51:11;95396.81;;;24.65;37.43
6134;BME280;3098;42.678;23.364;2022-10-31T12:53:55;95392.97;;;24.76;37.07
6134;BME280;3098;42.678;23.364;2022-10-31T12:56:37;95392.56;;;24.71;37.31
6134;BME280;3098;42.678;23.364;2022-10-31T12:59:11;95394.44;;;24.35;38.04
6134;BME280;3098;42.678;23.364;2022-10-31T13:01:45;95386.63;;;24.16;38.43
6134;BME280;3098;42.678;23.364;2022-10-31T13:04:18;95396.75;;;24.29;38.03
6134;BME280;3098;42.678;23.364;2022-10-31T13:06:53;95350.78;;;23.61;38.71
6134;BME280;3098;42.678;23.364;2022-10-31T13:09:27;95276.16;;;23.02;39.02
6134;BME280;3098;42.678;23.364;2022-10-31T13:12:01;95392.22;;;23.72;38.54
6134;BME280;3098;42.678;23.364;2022-10-31T13:14:33;95297.97;;;23.26;38.51
6134;BME280;3098;42.678;23.364;2022-10-31T13:17:04;95388.47;;;23.97;38.29
6134;BME280;3098;42.678;23.364;2022-10-31T13:19:36;95343.13;;;23.80;38.13
6134;BME280;3098;42.678;23.364;2022-10-31T13:22:16;95370.22;;;23.87;38.40
6134;BME280;3098;42.678;23.364;2022-10-31T13:24:52;95337.56;;;23.49;39.17
6134;BME280;3098;42.678;23.364;2022-10-31T13:27:23;95331.06;;;23.64;38.82
6134;BME280;3098;42.678;23.364;2022-10-31T13:29:58;95360.94;;;23.88;38.51
6134;BME280;3098;42.678;23.364;2022-10-31T13:32:35;95367.94;;;23.89;38.66
6134;BME280;3098;42.678;23.364;2022-10-31T13:35:12;95386.22;;;24.10;38.14
6134;BME280;3098;42.678;23.364;2022-10-31T13:37:45;95390.09;;;24.13;38.12
6134;BME280;3098;42.678;23.364;2022-10-31T13:40:21;95391.28;;;24.19;38.20